Terminal Aerodrome Forecast
Issued by NWS

Home | Current Version | Previous Version | Text Only | Print | Product List | Glossary On
Versions: 1 2 3 4 5 6 7 8 9 10 11 12 13 14 15
000
FTUS45 KABQ 050525
TAFGUP
TAF
KGUP 050525Z 0506/0606 VRB06KT P6SM BKN060 BKN120
     FM051300 21006KT P6SM SCT030 SCT120
     FM051800 24008KT P6SM VCTS SCT070CB SCT150
     FM052100 25012KT P6SM VCTS BKN060CB BKN120
      TEMPO 0521/0523 VRB20G30KT=

USA.gov is the U.S. government's official web portal to all federal, state and local government web resources and services.